Maran Canopus — SXUQ — position and weather

sailwx.info

Track history (hours):
 
Tides and Currents Weather Stations Pressure Air Temp Water Temp Dewpoint Dewpoint Depression Visibility Wind Speed Wind Dir Waves Ship Positions

Maran Canopus

Last reported at 2018-Apr-21 04:13 UTC. Time now 2018-Apr-22 04:42 UTC.
Position N 17°10' E 068°28'.

Length 333 m; draft 11.8 m.

Type: Ship (hazmat cat D). MMSI: 240677000.

Date/timePositionNaut miles runAvg speedWind from/ knotsBaromVisibWave heightAir tempDewpointWater temp
2018-Apr-21 04:13N 17°10' E 068°28'310.5
2018-Apr-21 03:58N 17°08' E 068°31'1010.6
2018-Apr-21 03:01N 17°02' E 068°39'5610.6
2018-Apr-20 21:41N 16°29' E 069°27'310.6
2018-Apr-20 21:22N 16°27' E 069°29'710.7
2018-Apr-20 20:46N 16°23' E 069°35'1011.0
2018-Apr-20 19:50N 16°17' E 069°44'5011.3
2018-Apr-20 15:26N 15°50' E 070°26'511.3
2018-Apr-20 14:59N 15°47' E 070°30'811.2
2018-Apr-20 14:18N 15°42' E 070°37'811.1
2018-Apr-20 13:37N 15°38' E 070°43'111.0
2018-Apr-20 13:30N 15°37' E 070°44'610.9
2018-Apr-20 12:57N 15°34' E 070°50'911.0
2018-Apr-20 12:06N 15°28' E 070°57'110.9
2018-Apr-20 12:00N 15°27' E 070°58'810.6
2018-Apr-20 11:17N 15°23' E 071°05'410.4
2018-Apr-20 10:55N 15°21' E 071°08'510.6
2018-Apr-20 10:29N 15°18' E 071°11'510.8
2018-Apr-20 10:00N 15°15' E 071°16'510.7
2018-Apr-20 09:30N 15°11' E 071°20'612.1
2018-Apr-20 09:00N 15°08' E 071°25'3810.9
2018-Apr-20 05:33N 14°45' E 071°56'410.8
2018-Apr-20 05:10N 14°43' E 071°60'210.7
2018-Apr-20 05:01N 14°42' E 072°01'  
Track history (hours):
 
Tides and Currents Weather Stations Pressure Air Temp Water Temp Dewpoint Dewpoint Depression Visibility Wind Speed Wind Dir Waves Ship Positions

Maran Canopus

Last reported at 2018-Apr-21 04:13 UTC. Time now 2018-Apr-22 04:42 UTC.
Position N 17°10' E 068°28'.

Length 333 m; draft 11.8 m.

Type: Ship (hazmat cat D). MMSI: 240677000.

Date/timePositionNaut miles runAvg speedWind from/ knotsBaromVisibWave heightAir tempDewpointWater temp
2018-Apr-21 04:13N 17°10' E 068°28'310.5
2018-Apr-21 03:58N 17°08' E 068°31'1010.6
2018-Apr-21 03:01N 17°02' E 068°39'5610.6
2018-Apr-20 21:41N 16°29' E 069°27'310.6
2018-Apr-20 21:22N 16°27' E 069°29'710.7
2018-Apr-20 20:46N 16°23' E 069°35'1011.0
2018-Apr-20 19:50N 16°17' E 069°44'5011.3
2018-Apr-20 15:26N 15°50' E 070°26'511.3
2018-Apr-20 14:59N 15°47' E 070°30'811.2
2018-Apr-20 14:18N 15°42' E 070°37'811.1
2018-Apr-20 13:37N 15°38' E 070°43'111.0
2018-Apr-20 13:30N 15°37' E 070°44'610.9
2018-Apr-20 12:57N 15°34' E 070°50'911.0
2018-Apr-20 12:06N 15°28' E 070°57'110.9
2018-Apr-20 12:00N 15°27' E 070°58'810.6
2018-Apr-20 11:17N 15°23' E 071°05'410.4
2018-Apr-20 10:55N 15°21' E 071°08'510.6
2018-Apr-20 10:29N 15°18' E 071°11'510.8
2018-Apr-20 10:00N 15°15' E 071°16'510.7
2018-Apr-20 09:30N 15°11' E 071°20'612.1
2018-Apr-20 09:00N 15°08' E 071°25'3810.9
2018-Apr-20 05:33N 14°45' E 071°56'410.8
2018-Apr-20 05:10N 14°43' E 071°60'210.7
2018-Apr-20 05:01N 14°42' E 072°01'  

Dump ship's entire track history